createdAt,value
2019-05-22T00:00:58.535Z,1004.98
2019-05-22T00:01:58.526Z,1004.97
2019-05-22T00:02:58.521Z,1004.97
2019-05-22T00:03:58.515Z,1004.94
2019-05-22T00:04:58.506Z,1004.93
2019-05-22T00:05:58.509Z,1004.95
2019-05-22T00:06:58.498Z,1004.97
2019-05-22T00:07:58.501Z,1004.99
2019-05-22T00:08:58.495Z,1004.97
2019-05-22T00:10:00.446Z,1004.97
2019-05-22T00:10:58.473Z,1004.99
2019-05-22T00:11:58.480Z,1004.99
2019-05-22T00:12:58.479Z,1005.01
2019-05-22T00:13:58.465Z,1004.97
2019-05-22T00:14:58.470Z,1005.00
2019-05-22T00:15:58.454Z,1004.97
2019-05-22T00:16:58.451Z,1004.98
2019-05-22T00:17:58.451Z,1004.98
2019-05-22T00:18:58.444Z,1005.03
2019-05-22T00:19:58.440Z,1004.98
2019-05-22T00:20:58.442Z,1005.01
2019-05-22T00:21:58.435Z,1005.04
2019-05-22T00:22:58.421Z,1005.09
2019-05-22T00:23:58.417Z,1005.09
2019-05-22T00:24:58.434Z,1005.13
2019-05-22T00:25:58.414Z,1005.08
2019-05-22T00:26:58.412Z,1005.12
2019-05-22T00:27:58.392Z,1005.18
2019-05-22T00:28:58.388Z,1005.21
2019-05-22T00:29:58.402Z,1005.20
2019-05-22T00:30:58.375Z,1005.19
2019-05-22T00:31:58.395Z,1005.14
2019-05-22T00:32:58.438Z,1005.18
2019-05-22T00:33:58.364Z,1005.17
2019-05-22T00:34:58.364Z,1005.18
2019-05-22T00:35:58.352Z,1005.22
2019-05-22T00:36:58.354Z,1005.20
2019-05-22T00:37:58.374Z,1005.18
2019-05-22T00:38:58.386Z,1005.17
2019-05-22T00:39:58.397Z,1005.19
2019-05-22T00:40:58.335Z,1005.26
2019-05-22T00:41:58.324Z,1005.22
2019-05-22T00:43:04.277Z,1005.24
2019-05-22T00:43:58.320Z,1005.29
2019-05-22T00:44:58.310Z,1005.27
2019-05-22T00:45:58.308Z,1005.32
2019-05-22T00:46:58.303Z,1005.27
2019-05-22T00:47:58.296Z,1005.34
2019-05-22T00:48:58.299Z,1005.33
2019-05-22T00:49:58.280Z,1005.37
2019-05-22T00:50:58.305Z,1005.36
2019-05-22T00:51:58.306Z,1005.36
2019-05-22T00:52:58.275Z,1005.32
2019-05-22T00:53:58.266Z,1005.38
2019-05-22T00:54:58.261Z,1005.35
2019-05-22T00:55:58.250Z,1005.38
2019-05-22T00:56:58.246Z,1005.40
2019-05-22T00:57:58.247Z,1005.39
2019-05-22T00:58:58.244Z,1005.46
2019-05-22T00:59:58.232Z,1005.40
2019-05-22T01:00:58.225Z,1005.38
2019-05-22T01:01:58.220Z,1005.49
2019-05-22T01:02:58.217Z,1005.50
2019-05-22T01:03:58.221Z,1005.50
2019-05-22T01:04:58.213Z,1005.47
2019-05-22T01:05:58.214Z,1005.54
2019-05-22T01:06:58.202Z,1005.56
2019-05-22T01:07:58.190Z,1005.60
2019-05-22T01:08:58.182Z,1005.60
2019-05-22T01:10:00.015Z,1005.55
2019-05-22T01:10:58.173Z,1005.58
2019-05-22T01:11:58.176Z,1005.58
2019-05-22T01:12:58.169Z,1005.61
2019-05-22T01:13:58.158Z,1005.60
2019-05-22T01:14:58.156Z,1005.64
2019-05-22T01:15:58.160Z,1005.63
2019-05-22T01:16:58.155Z,1005.61
2019-05-22T01:17:58.146Z,1005.60
2019-05-22T01:18:58.138Z,1005.62
2019-05-22T01:19:58.127Z,1005.63
2019-05-22T01:20:58.130Z,1005.57
2019-05-22T01:21:58.117Z,1005.60
2019-05-22T01:22:58.117Z,1005.59
2019-05-22T01:23:58.112Z,1005.61
2019-05-22T01:24:58.110Z,1005.63
2019-05-22T01:25:58.109Z,1005.61
2019-05-22T01:26:58.097Z,1005.60
2019-05-22T01:27:58.092Z,1005.58
2019-05-22T01:28:58.089Z,1005.62
2019-05-22T01:29:58.084Z,1005.58
2019-05-22T01:30:58.081Z,1005.59
2019-05-22T01:31:58.069Z,1005.58
2019-05-22T01:32:58.098Z,1005.55
2019-05-22T01:33:58.057Z,1005.56
2019-05-22T01:34:58.056Z,1005.55
2019-05-22T01:35:58.058Z,1005.59
2019-05-22T01:36:58.048Z,1005.58
2019-05-22T01:37:58.039Z,1005.58
2019-05-22T01:38:58.034Z,1005.63
2019-05-22T01:39:58.025Z,1005.64
2019-05-22T01:40:58.019Z,1005.63
2019-05-22T01:41:58.014Z,1005.65
2019-05-22T01:42:58.010Z,1005.63
2019-05-22T01:43:58.012Z,1005.66
2019-05-22T01:45:05.979Z,1005.72
2019-05-22T01:45:57.994Z,1005.76
2019-05-22T01:46:57.995Z,1005.75
2019-05-22T01:47:57.989Z,1005.75
2019-05-22T01:48:57.989Z,1005.78
2019-05-22T01:49:57.986Z,1005.75
2019-05-22T01:50:57.992Z,1005.79
2019-05-22T01:51:59.474Z,1005.77
2019-05-22T01:52:57.956Z,1005.79
2019-05-22T01:53:57.954Z,1005.79
2019-05-22T01:54:57.950Z,1005.78
2019-05-22T01:55:57.950Z,1005.80
2019-05-22T01:56:57.955Z,1005.81
2019-05-22T01:57:57.934Z,1005.78
2019-05-22T01:58:57.929Z,1005.83
2019-05-22T01:59:57.924Z,1005.80
2019-05-22T02:00:57.921Z,1005.83
2019-05-22T02:01:57.920Z,1005.82
2019-05-22T02:02:57.911Z,1005.84
2019-05-22T02:03:57.902Z,1005.86
2019-05-22T02:04:57.897Z,1005.79
2019-05-22T02:05:57.893Z,1005.80
2019-05-22T02:06:57.887Z,1005.77
2019-05-22T02:07:57.883Z,1005.77
2019-05-22T02:08:57.886Z,1005.76
2019-05-22T02:09:57.882Z,1005.70
2019-05-22T02:10:57.869Z,1005.68
2019-05-22T02:11:57.857Z,1005.66
2019-05-22T02:12:57.859Z,1005.73
2019-05-22T02:13:57.887Z,1005.71
2019-05-22T02:14:57.925Z,1005.72
2019-05-22T02:15:57.844Z,1005.74
2019-05-22T02:16:57.838Z,1005.71
2019-05-22T02:17:57.830Z,1005.66
2019-05-22T02:18:57.820Z,1005.70
2019-05-22T02:19:57.822Z,1005.71
2019-05-22T02:20:57.823Z,1005.68
2019-05-22T02:21:59.493Z,1005.74
2019-05-22T02:22:57.804Z,1005.78
2019-05-22T02:23:57.796Z,1005.75
2019-05-22T02:24:57.797Z,1005.72
2019-05-22T02:25:57.790Z,1005.78
2019-05-22T02:26:57.779Z,1005.72
2019-05-22T02:27:57.781Z,1005.76
2019-05-22T02:28:57.776Z,1005.79
2019-05-22T02:29:57.768Z,1005.79
2019-05-22T02:30:57.769Z,1005.79
2019-05-22T02:31:57.756Z,1005.79
2019-05-22T02:32:57.747Z,1005.81
2019-05-22T02:33:57.751Z,1005.79
2019-05-22T02:34:57.752Z,1005.75
2019-05-22T02:35:57.737Z,1005.80
2019-05-22T02:36:57.770Z,1005.72
2019-05-22T02:37:57.721Z,1005.77
2019-05-22T02:38:57.722Z,1005.75
2019-05-22T02:39:57.732Z,1005.78
2019-05-22T02:40:57.720Z,1005.81
2019-05-22T02:41:57.706Z,1005.82
2019-05-22T02:42:57.735Z,1005.84
2019-05-22T02:43:57.705Z,1005.89
2019-05-22T02:44:57.685Z,1005.88
2019-05-22T02:45:57.685Z,1005.85
2019-05-22T02:47:14.410Z,1005.91
2019-05-22T02:47:57.679Z,1005.93
2019-05-22T02:48:57.672Z,1005.91
2019-05-22T02:49:57.658Z,1005.95
2019-05-22T02:50:57.652Z,1005.91
2019-05-22T02:51:57.655Z,1005.93
2019-05-22T02:52:59.496Z,1005.95
2019-05-22T02:53:57.641Z,1005.92
2019-05-22T02:54:57.664Z,1005.95
2019-05-22T02:55:57.634Z,1005.96
2019-05-22T02:56:57.631Z,1005.99
2019-05-22T02:57:57.623Z,1006.00
2019-05-22T02:58:57.610Z,1006.04
2019-05-22T02:59:57.609Z,1006.02
2019-05-22T03:00:57.615Z,1005.96
2019-05-22T03:01:57.603Z,1006.02
2019-05-22T03:02:57.594Z,1005.98
2019-05-22T03:03:57.588Z,1006.00
2019-05-22T03:04:57.606Z,1006.00
2019-05-22T03:05:57.584Z,1005.98
2019-05-22T03:06:57.573Z,1006.00
2019-05-22T03:07:57.567Z,1006.02
2019-05-22T03:08:57.561Z,1006.01
2019-05-22T03:09:57.628Z,1005.97
2019-05-22T03:10:57.561Z,1006.06
2019-05-22T03:11:57.549Z,1006.03
2019-05-22T03:12:57.538Z,1006.05
2019-05-22T03:13:57.548Z,1006.10
2019-05-22T03:14:57.529Z,1006.08
2019-05-22T03:15:57.522Z,1006.10
2019-05-22T03:16:57.514Z,1006.15
2019-05-22T03:17:57.511Z,1006.20
2019-05-22T03:19:08.198Z,1006.21
2019-05-22T03:19:57.503Z,1006.24
2019-05-22T03:20:57.502Z,1006.27
2019-05-22T03:21:57.490Z,1006.24
2019-05-22T03:22:57.507Z,1006.24
2019-05-22T03:23:57.484Z,1006.28
2019-05-22T03:24:59.006Z,1006.26
2019-05-22T03:25:57.471Z,1006.26
2019-05-22T03:26:57.471Z,1006.23
2019-05-22T03:27:57.465Z,1006.30
2019-05-22T03:28:59.013Z,1006.26
2019-05-22T03:29:57.449Z,1006.25
2019-05-22T03:30:59.005Z,1006.27
2019-05-22T03:31:57.442Z,1006.23
2019-05-22T03:32:57.470Z,1006.23
2019-05-22T03:33:57.449Z,1006.26
2019-05-22T03:34:57.429Z,1006.25
2019-05-22T03:35:57.439Z,1006.23
2019-05-22T03:36:57.412Z,1006.22
2019-05-22T03:37:57.409Z,1006.26
2019-05-22T03:38:57.401Z,1006.24
2019-05-22T03:39:57.395Z,1006.29
2019-05-22T03:40:57.396Z,1006.27
2019-05-22T03:41:59.008Z,1006.23
2019-05-22T03:42:57.375Z,1006.31
2019-05-22T03:43:57.377Z,1006.29
2019-05-22T03:44:57.377Z,1006.35
2019-05-22T03:45:57.428Z,1006.36
2019-05-22T03:46:59.619Z,1006.39
2019-05-22T03:47:57.350Z,1006.33
2019-05-22T03:48:57.342Z,1006.34
2019-05-22T03:49:57.354Z,1006.40
2019-05-22T03:50:57.336Z,1006.41
2019-05-22T03:51:57.330Z,1006.40
2019-05-22T03:52:57.328Z,1006.42
2019-05-22T03:53:57.315Z,1006.43
2019-05-22T03:54:57.310Z,1006.45
2019-05-22T03:55:57.325Z,1006.45
2019-05-22T03:56:57.320Z,1006.50
2019-05-22T03:57:57.304Z,1006.52
2019-05-22T03:58:57.292Z,1006.52
2019-05-22T03:59:57.280Z,1006.47
2019-05-22T04:00:57.278Z,1006.49
2019-05-22T04:01:57.309Z,1006.52
2019-05-22T04:02:57.271Z,1006.54
2019-05-22T04:03:57.264Z,1006.55
2019-05-22T04:04:57.258Z,1006.53
2019-05-22T04:05:57.249Z,1006.61
2019-05-22T04:06:57.246Z,1006.53
2019-05-22T04:07:57.245Z,1006.59
2019-05-22T04:08:57.250Z,1006.66
2019-05-22T04:09:57.237Z,1006.60
2019-05-22T04:10:57.227Z,1006.58
2019-05-22T04:11:57.225Z,1006.60
2019-05-22T04:12:57.220Z,1006.65
2019-05-22T04:13:57.221Z,1006.64
2019-05-22T04:14:57.214Z,1006.68
2019-05-22T04:15:57.199Z,1006.68
2019-05-22T04:16:57.255Z,1006.72
2019-05-22T04:17:57.205Z,1006.73
2019-05-22T04:18:57.216Z,1006.72
2019-05-22T04:19:57.204Z,1006.75
2019-05-22T04:20:57.175Z,1006.71
2019-05-22T04:21:57.203Z,1006.68
2019-05-22T04:22:57.218Z,1006.73
2019-05-22T04:23:57.175Z,1006.74
2019-05-22T04:24:57.154Z,1006.70
2019-05-22T04:25:57.151Z,1006.75
2019-05-22T04:26:57.187Z,1006.72
2019-05-22T04:27:57.170Z,1006.75
2019-05-22T04:28:57.151Z,1006.78
2019-05-22T04:29:57.182Z,1006.85
2019-05-22T04:30:59.841Z,1006.75
2019-05-22T04:31:57.138Z,1006.75
2019-05-22T04:32:57.182Z,1006.78
2019-05-22T04:33:57.117Z,1006.79
2019-05-22T04:34:57.113Z,1006.79
2019-05-22T04:35:57.093Z,1006.80
2019-05-22T04:36:57.102Z,1006.79
2019-05-22T04:37:57.084Z,1006.85
2019-05-22T04:38:57.079Z,1006.84
2019-05-22T04:39:57.092Z,1006.79
2019-05-22T04:40:57.073Z,1006.83
2019-05-22T04:41:57.062Z,1006.82
2019-05-22T04:42:57.077Z,1006.84
2019-05-22T04:43:57.061Z,1006.84
2019-05-22T04:44:57.149Z,1006.84
2019-05-22T04:45:57.180Z,1006.87
2019-05-22T04:46:57.094Z,1006.88
2019-05-22T04:47:57.545Z,1006.83
2019-05-22T04:48:57.081Z,1006.85
2019-05-22T04:50:06.812Z,1006.88
2019-05-22T04:50:57.019Z,1006.90
2019-05-22T04:51:57.021Z,1006.91
2019-05-22T04:52:57.010Z,1006.87
2019-05-22T04:53:57.030Z,1006.89
2019-05-22T04:54:56.997Z,1006.86
2019-05-22T04:55:56.988Z,1006.89
2019-05-22T04:56:56.981Z,1006.91
2019-05-22T04:57:57.032Z,1006.97
2019-05-22T04:58:56.996Z,1006.96
2019-05-22T04:59:56.968Z,1006.94
2019-05-22T05:00:56.959Z,1006.96
2019-05-22T05:01:56.957Z,1007.00
2019-05-22T05:02:56.969Z,1007.02
2019-05-22T05:03:56.957Z,1006.96
2019-05-22T05:04:56.949Z,1007.00
2019-05-22T05:05:56.961Z,1007.03
2019-05-22T05:06:56.933Z,1006.97
2019-05-22T05:07:56.938Z,1007.00
2019-05-22T05:08:56.955Z,1007.04
2019-05-22T05:09:56.910Z,1006.99
2019-05-22T05:10:56.918Z,1007.03
2019-05-22T05:11:56.912Z,1007.04
2019-05-22T05:12:56.909Z,1006.97
2019-05-22T05:13:56.898Z,1007.08
2019-05-22T05:14:56.908Z,1007.07
2019-05-22T05:15:56.888Z,1007.06
2019-05-22T05:16:56.881Z,1007.08
2019-05-22T05:17:56.880Z,1007.11
2019-05-22T05:18:56.872Z,1007.06
2019-05-22T05:19:56.872Z,1007.06
2019-05-22T05:20:56.857Z,1007.10
2019-05-22T05:21:56.855Z,1007.09
2019-05-22T05:22:56.846Z,1007.08
2019-05-22T05:23:56.849Z,1007.08
2019-05-22T05:24:56.841Z,1007.10
2019-05-22T05:25:56.837Z,1007.11
2019-05-22T05:26:56.830Z,1007.14
2019-05-22T05:27:56.829Z,1007.11
2019-05-22T05:28:56.816Z,1007.12
2019-05-22T05:29:56.815Z,1007.08
2019-05-22T05:30:56.807Z,1007.17
2019-05-22T05:31:56.798Z,1007.19
2019-05-22T05:32:56.794Z,1007.19
2019-05-22T05:33:56.783Z,1007.22
2019-05-22T05:34:56.782Z,1007.14
2019-05-22T05:35:56.786Z,1007.13
2019-05-22T05:36:56.787Z,1007.14
2019-05-22T05:37:56.772Z,1007.17
2019-05-22T05:38:56.767Z,1007.16
2019-05-22T05:39:56.751Z,1007.18
2019-05-22T05:40:56.746Z,1007.19
2019-05-22T05:41:56.742Z,1007.22
2019-05-22T05:42:56.737Z,1007.16
2019-05-22T05:43:56.735Z,1007.20
2019-05-22T05:44:56.744Z,1007.23
2019-05-22T05:45:56.749Z,1007.15
2019-05-22T05:46:56.737Z,1007.17
2019-05-22T05:47:56.716Z,1007.20
2019-05-22T05:48:56.710Z,1007.19
2019-05-22T05:49:56.704Z,1007.27
2019-05-22T05:50:56.701Z,1007.25
2019-05-22T05:51:56.685Z,1007.22
2019-05-22T05:52:56.690Z,1007.28
2019-05-22T05:53:56.681Z,1007.24
2019-05-22T05:54:56.671Z,1007.20
2019-05-22T05:55:56.673Z,1007.25
2019-05-22T05:56:56.664Z,1007.25
2019-05-22T05:57:56.660Z,1007.27
2019-05-22T05:58:56.655Z,1007.25
2019-05-22T05:59:56.691Z,1007.26
2019-05-22T06:00:58.555Z,1007.25
2019-05-22T06:01:56.646Z,1007.28
2019-05-22T06:02:56.933Z,1007.27
2019-05-22T06:03:56.630Z,1007.28
2019-05-22T06:04:56.625Z,1007.25
2019-05-22T06:05:56.611Z,1007.27
2019-05-22T06:07:00.465Z,1007.29
2019-05-22T06:07:56.608Z,1007.34
2019-05-22T06:08:56.602Z,1007.26
2019-05-22T06:09:56.602Z,1007.30
2019-05-22T06:10:56.613Z,1007.23
2019-05-22T06:11:56.590Z,1007.33
2019-05-22T06:12:56.582Z,1007.30
2019-05-22T06:13:56.574Z,1007.29
2019-05-22T06:14:56.567Z,1007.26
2019-05-22T06:15:56.614Z,1007.25
2019-05-22T06:16:56.605Z,1007.24
2019-05-22T06:17:56.554Z,1007.25
2019-05-22T06:18:57.263Z,1007.22
2019-05-22T06:19:56.545Z,1007.26
2019-05-22T06:21:03.665Z,1007.22
2019-05-22T06:21:56.575Z,1007.21
2019-05-22T06:22:56.548Z,1007.24
2019-05-22T06:23:56.539Z,1007.28
2019-05-22T06:24:56.516Z,1007.29
2019-05-22T06:25:56.515Z,1007.27
2019-05-22T06:26:56.504Z,1007.30
2019-05-22T06:27:56.520Z,1007.33
2019-05-22T06:28:56.497Z,1007.31
2019-05-22T06:29:56.496Z,1007.35
2019-05-22T06:30:56.492Z,1007.37
2019-05-22T06:31:56.479Z,1007.39
2019-05-22T06:32:56.500Z,1007.41
2019-05-22T06:33:56.470Z,1007.43
2019-05-22T06:34:59.670Z,1007.49
2019-05-22T06:35:56.462Z,1007.48
2019-05-22T06:36:56.461Z,1007.55
2019-05-22T06:37:56.444Z,1007.53
2019-05-22T06:38:56.447Z,1007.53
2019-05-22T06:39:56.457Z,1007.56
2019-05-22T06:40:56.437Z,1007.58
2019-05-22T06:41:56.470Z,1007.56
2019-05-22T06:42:56.483Z,1007.55
2019-05-22T06:43:56.476Z,1007.61
2019-05-22T06:44:56.458Z,1007.60
2019-05-22T06:45:56.425Z,1007.58
2019-05-22T06:46:56.420Z,1007.58
2019-05-22T06:47:56.424Z,1007.62
2019-05-22T06:48:56.393Z,1007.61
2019-05-22T06:49:56.426Z,1007.73
2019-05-22T06:50:56.381Z,1007.74
2019-05-22T06:51:56.473Z,1007.79
2019-05-22T06:53:09.459Z,1007.78
2019-05-22T06:53:56.370Z,1007.82
2019-05-22T06:54:56.371Z,1007.83
2019-05-22T06:55:56.362Z,1007.82
2019-05-22T06:56:56.372Z,1007.83
2019-05-22T06:57:56.343Z,1007.82
2019-05-22T06:58:56.330Z,1007.86
2019-05-22T07:00:11.979Z,1007.83
2019-05-22T07:00:56.376Z,1007.88
2019-05-22T07:02:01.340Z,1007.87
2019-05-22T07:02:56.324Z,1007.89
2019-05-22T07:03:56.311Z,1007.87
2019-05-22T07:04:56.314Z,1007.92
2019-05-22T07:05:56.332Z,1007.89
2019-05-22T07:06:56.324Z,1007.89
2019-05-22T07:07:56.293Z,1007.93
2019-05-22T07:08:56.283Z,1007.93
2019-05-22T07:09:56.294Z,1007.97
2019-05-22T07:10:56.276Z,1007.92
2019-05-22T07:11:56.278Z,1007.92
2019-05-22T07:12:56.275Z,1007.96
2019-05-22T07:13:56.270Z,1007.96
2019-05-22T07:14:56.251Z,1007.95
2019-05-22T07:15:56.244Z,1007.92
2019-05-22T07:16:56.248Z,1007.94
2019-05-22T07:17:56.247Z,1007.96
2019-05-22T07:18:56.225Z,1008.01
2019-05-22T07:19:56.242Z,1007.98
2019-05-22T07:20:56.236Z,1008.02
2019-05-22T07:21:56.206Z,1007.98
2019-05-22T07:22:56.204Z,1008.01
2019-05-22T07:23:56.209Z,1007.93
2019-05-22T07:24:56.195Z,1007.98
2019-05-22T07:25:56.196Z,1008.01
2019-05-22T07:26:56.189Z,1007.95
2019-05-22T07:27:56.195Z,1007.97
2019-05-22T07:28:56.182Z,1007.97
2019-05-22T07:29:56.167Z,1008.05
2019-05-22T07:30:56.159Z,1008.00
2019-05-22T07:31:56.160Z,1008.08
2019-05-22T07:32:56.160Z,1008.04
2019-05-22T07:33:56.151Z,1008.00
2019-05-22T07:34:56.143Z,1008.12
2019-05-22T07:36:09.167Z,1008.08
2019-05-22T07:36:56.131Z,1008.05
2019-05-22T07:37:58.137Z,1008.08
2019-05-22T07:38:56.115Z,1008.10
2019-05-22T07:39:56.118Z,1008.08
2019-05-22T07:40:56.107Z,1008.04
2019-05-22T07:41:56.102Z,1008.06
2019-05-22T07:42:56.496Z,1008.03
2019-05-22T07:43:56.094Z,1008.08
2019-05-22T07:44:56.110Z,1008.03
2019-05-22T07:45:56.079Z,1008.08
2019-05-22T07:46:56.074Z,1008.08
2019-05-22T07:47:56.066Z,1008.08
2019-05-22T07:48:56.058Z,1008.07
2019-05-22T07:49:56.066Z,1008.19
2019-05-22T07:50:56.102Z,1008.11
2019-05-22T07:52:01.155Z,1008.19
2019-05-22T07:52:56.046Z,1008.09
2019-05-22T07:53:56.036Z,1008.05
2019-05-22T07:54:56.033Z,1008.09
2019-05-22T07:55:56.025Z,1008.12
2019-05-22T07:56:56.023Z,1008.10
2019-05-22T07:57:56.013Z,1008.08
2019-05-22T07:58:58.936Z,1008.15
2019-05-22T07:59:55.998Z,1008.17
2019-05-22T08:00:55.996Z,1008.21
2019-05-22T08:01:55.991Z,1008.18
2019-05-22T08:02:56.014Z,1008.20
2019-05-22T08:03:55.982Z,1008.20
2019-05-22T08:04:55.978Z,1008.20
2019-05-22T08:05:55.975Z,1008.25
2019-05-22T08:06:56.106Z,1008.20
2019-05-22T08:07:55.954Z,1008.22
2019-05-22T08:08:55.951Z,1008.26
2019-05-22T08:09:55.949Z,1008.26
2019-05-22T08:10:55.955Z,1008.37
2019-05-22T08:11:55.945Z,1008.33
2019-05-22T08:12:55.942Z,1008.34
2019-05-22T08:13:55.923Z,1008.33
2019-05-22T08:14:55.957Z,1008.36
2019-05-22T08:15:55.916Z,1008.35
2019-05-22T08:16:55.936Z,1008.36
2019-05-22T08:17:56.066Z,1008.34
2019-05-22T08:18:55.899Z,1008.41
2019-05-22T08:19:55.893Z,1008.39
2019-05-22T08:20:55.905Z,1008.45
2019-05-22T08:22:06.901Z,1008.45
2019-05-22T08:22:55.876Z,1008.46
2019-05-22T08:23:55.943Z,1008.48
2019-05-22T08:24:55.867Z,1008.47
2019-05-22T08:25:55.855Z,1008.52
2019-05-22T08:26:55.871Z,1008.57
2019-05-22T08:27:57.620Z,1008.53
2019-05-22T08:28:55.852Z,1008.53
2019-05-22T08:29:57.055Z,1008.49
2019-05-22T08:30:55.862Z,1008.49
2019-05-22T08:31:55.834Z,1008.51
2019-05-22T08:32:55.819Z,1008.57
2019-05-22T08:33:55.823Z,1008.47
2019-05-22T08:34:55.803Z,1008.49
2019-05-22T08:35:55.817Z,1008.52
2019-05-22T08:36:55.815Z,1008.54
2019-05-22T08:37:55.795Z,1008.54
2019-05-22T08:38:55.798Z,1008.53
2019-05-22T08:39:55.891Z,1008.48
2019-05-22T08:40:55.779Z,1008.58
2019-05-22T08:41:55.779Z,1008.51
2019-05-22T08:42:55.773Z,1008.51
2019-05-22T08:44:14.753Z,1008.53
2019-05-22T08:44:55.748Z,1008.63
2019-05-22T08:45:55.751Z,1008.54
2019-05-22T08:46:55.741Z,1008.56
2019-05-22T08:47:55.739Z,1008.59
2019-05-22T08:48:55.740Z,1008.60
2019-05-22T08:49:55.728Z,1008.64
2019-05-22T08:50:55.734Z,1008.64
2019-05-22T08:51:55.726Z,1008.63
2019-05-22T08:52:55.707Z,1008.60
2019-05-22T08:53:55.705Z,1008.62
2019-05-22T08:54:55.696Z,1008.67
2019-05-22T08:55:55.709Z,1008.67
2019-05-22T08:56:55.695Z,1008.60
2019-05-22T08:57:55.689Z,1008.67
2019-05-22T08:58:55.796Z,1008.62
2019-05-22T08:59:55.672Z,1008.66
2019-05-22T09:00:55.668Z,1008.64
2019-05-22T09:01:55.701Z,1008.63
2019-05-22T09:02:55.669Z,1008.59
2019-05-22T09:03:55.657Z,1008.60
2019-05-22T09:04:55.641Z,1008.68
2019-05-22T09:05:55.738Z,1008.61
2019-05-22T09:06:55.630Z,1008.62
2019-05-22T09:07:55.633Z,1008.61
2019-05-22T09:08:55.656Z,1008.68
2019-05-22T09:09:55.647Z,1008.66
2019-05-22T09:10:55.835Z,1008.64
2019-05-22T09:11:55.607Z,1008.64
2019-05-22T09:12:55.699Z,1008.67
2019-05-22T09:13:55.662Z,1008.72
2019-05-22T09:14:55.600Z,1008.77
2019-05-22T09:15:55.591Z,1008.74
2019-05-22T09:16:55.576Z,1008.76
2019-05-22T09:17:55.634Z,1008.77
2019-05-22T09:18:55.562Z,1008.81
2019-05-22T09:19:55.653Z,1008.79
2019-05-22T09:20:55.572Z,1008.82
2019-05-22T09:21:55.563Z,1008.87
2019-05-22T09:22:55.588Z,1008.87
2019-05-22T09:23:55.536Z,1008.86
2019-05-22T09:24:55.535Z,1008.85
2019-05-22T09:25:55.527Z,1008.88
2019-05-22T09:26:55.526Z,1008.85
2019-05-22T09:27:55.542Z,1008.88
2019-05-22T09:28:55.523Z,1008.86
2019-05-22T09:29:55.510Z,1008.85
2019-05-22T09:30:55.506Z,1008.84
2019-05-22T09:31:55.531Z,1008.90
2019-05-22T09:32:55.495Z,1008.86
2019-05-22T09:33:55.486Z,1008.89
2019-05-22T09:34:55.506Z,1008.94
2019-05-22T09:35:55.485Z,1008.87
2019-05-22T09:36:55.466Z,1008.92
2019-05-22T09:37:55.495Z,1008.95
2019-05-22T09:38:55.453Z,1008.98
2019-05-22T09:39:55.467Z,1008.95
2019-05-22T09:40:55.505Z,1008.98
2019-05-22T09:41:55.440Z,1008.97
2019-05-22T09:42:55.446Z,1008.98
2019-05-22T09:43:55.428Z,1009.03
2019-05-22T09:44:55.424Z,1008.95
2019-05-22T09:45:55.422Z,1008.99
2019-05-22T09:46:55.422Z,1009.01
2019-05-22T09:47:55.430Z,1009.03
2019-05-22T09:48:55.438Z,1009.00
2019-05-22T09:49:55.415Z,1008.98
2019-05-22T09:50:55.390Z,1009.00
2019-05-22T09:51:55.415Z,1009.05
2019-05-22T09:52:57.977Z,1009.09
2019-05-22T09:53:55.388Z,1009.10
2019-05-22T09:54:55.370Z,1009.01
2019-05-22T09:55:55.382Z,1009.02
2019-05-22T09:56:55.365Z,1009.05
2019-05-22T09:57:55.367Z,1009.10
2019-05-22T09:58:55.377Z,1009.02
2019-05-22T09:59:55.428Z,1009.01
2019-05-22T10:00:55.352Z,1009.08
2019-05-22T10:01:55.335Z,1009.03
2019-05-22T10:02:55.332Z,1009.06
2019-05-22T10:03:55.326Z,1009.08
2019-05-22T10:04:55.321Z,1009.08
2019-05-22T10:05:55.413Z,1009.08
2019-05-22T10:06:55.317Z,1009.05
2019-05-22T10:08:00.957Z,1009.12
2019-05-22T10:08:57.137Z,1009.12
2019-05-22T10:09:55.287Z,1009.11
2019-05-22T10:10:55.281Z,1009.10
2019-05-22T10:11:55.284Z,1009.13
2019-05-22T10:12:55.282Z,1009.13
2019-05-22T10:13:55.273Z,1009.17
2019-05-22T10:14:55.269Z,1009.19
2019-05-22T10:15:55.254Z,1009.18
2019-05-22T10:16:55.247Z,1009.19
2019-05-22T10:17:55.248Z,1009.22
2019-05-22T10:18:55.240Z,1009.17
2019-05-22T10:19:55.231Z,1009.19
2019-05-22T10:20:55.359Z,1009.28
2019-05-22T10:21:55.244Z,1009.22
2019-05-22T10:22:55.217Z,1009.26
2019-05-22T10:23:55.223Z,1009.19
2019-05-22T10:25:14.044Z,1009.19
2019-05-22T10:25:55.215Z,1009.24
2019-05-22T10:26:55.506Z,1009.19
2019-05-22T10:27:59.024Z,1009.30
2019-05-22T10:28:55.194Z,1009.31
2019-05-22T10:29:55.177Z,1009.29
2019-05-22T10:30:56.649Z,1009.34
2019-05-22T10:31:55.196Z,1009.35
2019-05-22T10:32:55.170Z,1009.36
2019-05-22T10:33:55.159Z,1009.37
2019-05-22T10:34:57.719Z,1009.40
2019-05-22T10:35:55.150Z,1009.40
2019-05-22T10:36:55.145Z,1009.42
2019-05-22T10:37:55.137Z,1009.38
2019-05-22T10:38:55.143Z,1009.39
2019-05-22T10:39:55.139Z,1009.45
2019-05-22T10:40:58.981Z,1009.41
2019-05-22T10:41:55.116Z,1009.31
2019-05-22T10:42:55.111Z,1009.42
2019-05-22T10:43:55.118Z,1009.37
2019-05-22T10:44:55.103Z,1009.41
2019-05-22T10:45:55.097Z,1009.37
2019-05-22T10:46:55.110Z,1009.44
2019-05-22T10:47:55.082Z,1009.42
2019-05-22T10:48:55.080Z,1009.43
2019-05-22T10:49:55.080Z,1009.41
2019-05-22T10:50:55.076Z,1009.54
2019-05-22T10:51:55.057Z,1009.52
2019-05-22T10:52:55.271Z,1009.52
2019-05-22T10:53:55.047Z,1009.50
2019-05-22T10:54:56.091Z,1009.49
2019-05-22T10:55:55.044Z,1009.48
2019-05-22T10:56:55.062Z,1009.52
2019-05-22T10:57:55.082Z,1009.51
2019-05-22T10:58:55.034Z,1009.51
2019-05-22T10:59:55.018Z,1009.56
2019-05-22T11:00:55.021Z,1009.60
2019-05-22T11:01:55.004Z,1009.47
2019-05-22T11:02:55.002Z,1009.53
2019-05-22T11:03:55.003Z,1009.55
2019-05-22T11:04:54.993Z,1009.56
2019-05-22T11:06:06.396Z,1009.53
2019-05-22T11:06:54.983Z,1009.55
2019-05-22T11:07:54.975Z,1009.59
2019-05-22T11:08:54.971Z,1009.60
2019-05-22T11:09:54.970Z,1009.61
2019-05-22T11:10:55.041Z,1009.57
2019-05-22T11:11:54.956Z,1009.60
2019-05-22T11:12:54.996Z,1009.66
2019-05-22T11:14:01.250Z,1009.64
2019-05-22T11:14:54.931Z,1009.64
2019-05-22T11:15:54.948Z,1009.58
2019-05-22T11:16:54.936Z,1009.61
2019-05-22T11:17:54.928Z,1009.64
2019-05-22T11:18:54.916Z,1009.68
2019-05-22T11:19:54.931Z,1009.61
2019-05-22T11:20:54.900Z,1009.67
2019-05-22T11:21:56.958Z,1009.65
2019-05-22T11:22:54.941Z,1009.71
2019-05-22T11:23:54.887Z,1009.73
2019-05-22T11:24:54.879Z,1009.70
2019-05-22T11:25:54.874Z,1009.70
2019-05-22T11:26:54.868Z,1009.72
2019-05-22T11:27:54.874Z,1009.72
2019-05-22T11:28:54.878Z,1009.68
2019-05-22T11:29:54.855Z,1009.76
2019-05-22T11:30:54.853Z,1009.77
2019-05-22T11:31:54.864Z,1009.80
2019-05-22T11:32:54.859Z,1009.87
2019-05-22T11:33:54.829Z,1009.78
2019-05-22T11:34:54.826Z,1009.81
2019-05-22T11:35:54.821Z,1009.87
2019-05-22T11:36:54.834Z,1009.81
2019-05-22T11:37:54.844Z,1009.86
2019-05-22T11:38:54.800Z,1009.83
2019-05-22T11:39:54.821Z,1009.84
2019-05-22T11:40:54.799Z,1009.89
2019-05-22T11:41:54.790Z,1009.90
2019-05-22T11:42:56.666Z,1009.88
2019-05-22T11:43:54.774Z,1009.87
2019-05-22T11:44:54.770Z,1009.87
2019-05-22T11:45:54.762Z,1009.92
2019-05-22T11:46:54.763Z,1009.95
2019-05-22T11:47:54.775Z,1009.92
2019-05-22T11:48:56.667Z,1009.93
2019-05-22T11:49:54.750Z,1009.87
2019-05-22T11:50:54.780Z,1009.96
2019-05-22T11:51:54.731Z,1009.89
2019-05-22T11:52:54.729Z,1009.99
2019-05-22T11:54:07.859Z,1009.91
2019-05-22T11:54:54.740Z,1009.96
2019-05-22T11:55:54.709Z,1009.99
2019-05-22T11:56:54.768Z,1010.01
2019-05-22T11:57:54.706Z,1009.97
2019-05-22T11:58:54.701Z,1010.00
2019-05-22T11:59:54.692Z,1009.95
2019-05-22T12:00:54.697Z,1009.96
2019-05-22T12:01:54.680Z,1010.00
2019-05-22T12:02:54.686Z,1009.95
2019-05-22T12:03:54.770Z,1009.90
2019-05-22T12:04:54.666Z,1010.01
2019-05-22T12:05:54.685Z,1009.95